Bluefish — 3EAR5 — position and weather

sailwx.info

Track history (hours):
 
Tides and Currents Weather Stations Pressure Air Temp Water Temp Dewpoint Dewpoint Depression Visibility Wind Speed Wind Dir Waves Ship Positions

Bluefish

Last reported at 2018-Jan-06 08:28 UTC. Time now 2018-Jan-19 17:44 UTC.
Position N 34°36' E 026°47'.
Warning: this ship's position is 13 days out of date.

; draft 7 m.

Type: Cargo ship. MMSI: 374367000.

Date/timePositionNaut miles runAvg speedWind from/ knotsBaromVisibWave heightAir tempDewpointWater temp
2018-Jan-06 08:28N 34°36' E 026°47'44 7.7
2018-Jan-06 02:47N 34°46' E 025°55'28 8.2
2018-Jan-05 23:20N 34°45' E 025°21'6 8.4
2018-Jan-05 22:39N 34°46' E 025°14'1 8.2
2018-Jan-05 22:30N 34°46' E 025°13'7 5.4
2018-Jan-05 21:15N 34°46' E 025°05'2 7.7
2018-Jan-05 21:00N 34°46' E 025°02'0 0.7
2018-Jan-05 20:30N 34°45' E 025°02'1 1.0
2018-Jan-05 19:58N 34°45' E 025°01'0 0.9
2018-Jan-05 19:29N 34°45' E 025°01'0 0.9
2018-Jan-05 18:56N 34°46' E 025°00'1 0.9
2018-Jan-05 18:21N 34°46' E 024°60'0 0.9
2018-Jan-05 18:00N 34°46' E 024°59'  
2018-Jan-02 06:22N 36°04' E 014°51'3 7.2
2018-Jan-02 06:00N 36°05' E 014°48'3 6.9
2018-Jan-02 05:30N 36°05' E 014°43'7 6.8
2018-Jan-02 04:27N 36°06' E 014°35'3 7.2
2018-Jan-02 03:58N 36°07' E 014°30'4 7.5
2018-Jan-02 03:30N 36°08' E 014°26'4 7.3
2018-Jan-02 03:00N 36°09' E 014°22'3 7.1
2018-Jan-02 02:30N 36°09' E 014°17'4 7.0
2018-Jan-02 02:00N 36°10' E 014°13'3 6.8
2018-Jan-02 01:30N 36°11' E 014°09'4 7.1
2018-Jan-02 01:00N 36°13' E 014°05'4 7.4
2018-Jan-02 00:30N 36°14' E 014°01'4 7.5
2018-Jan-02 00:00N 36°16' E 013°57'4 7.4
2018-Jan-01 23:30N 36°17' E 013°52'4 7.6
2018-Jan-01 23:00N 36°19' E 013°48'4 7.8
2018-Jan-01 22:30N 36°21' E 013°44'4 7.9
2018-Jan-01 22:00N 36°22' E 013°40'  
2017-Dec-27 16:37N 35°57' W 005°15'110.8
2017-Dec-27 16:30N 35°57' W 005°17'  
Track history (hours):
 
Tides and Currents Weather Stations Pressure Air Temp Water Temp Dewpoint Dewpoint Depression Visibility Wind Speed Wind Dir Waves Ship Positions

Bluefish

Last reported at 2018-Jan-06 08:28 UTC. Time now 2018-Jan-19 17:44 UTC.
Position N 34°36' E 026°47'.
Warning: this ship's position is 13 days out of date.

; draft 7 m.

Type: Cargo ship. MMSI: 374367000.

Date/timePositionNaut miles runAvg speedWind from/ knotsBaromVisibWave heightAir tempDewpointWater temp
2018-Jan-06 08:28N 34°36' E 026°47'44 7.7
2018-Jan-06 02:47N 34°46' E 025°55'28 8.2
2018-Jan-05 23:20N 34°45' E 025°21'6 8.4
2018-Jan-05 22:39N 34°46' E 025°14'1 8.2
2018-Jan-05 22:30N 34°46' E 025°13'7 5.4
2018-Jan-05 21:15N 34°46' E 025°05'2 7.7
2018-Jan-05 21:00N 34°46' E 025°02'0 0.7
2018-Jan-05 20:30N 34°45' E 025°02'1 1.0
2018-Jan-05 19:58N 34°45' E 025°01'0 0.9
2018-Jan-05 19:29N 34°45' E 025°01'0 0.9
2018-Jan-05 18:56N 34°46' E 025°00'1 0.9
2018-Jan-05 18:21N 34°46' E 024°60'0 0.9
2018-Jan-05 18:00N 34°46' E 024°59'  
2018-Jan-02 06:22N 36°04' E 014°51'3 7.2
2018-Jan-02 06:00N 36°05' E 014°48'3 6.9
2018-Jan-02 05:30N 36°05' E 014°43'7 6.8
2018-Jan-02 04:27N 36°06' E 014°35'3 7.2
2018-Jan-02 03:58N 36°07' E 014°30'4 7.5
2018-Jan-02 03:30N 36°08' E 014°26'4 7.3
2018-Jan-02 03:00N 36°09' E 014°22'3 7.1
2018-Jan-02 02:30N 36°09' E 014°17'4 7.0
2018-Jan-02 02:00N 36°10' E 014°13'3 6.8
2018-Jan-02 01:30N 36°11' E 014°09'4 7.1
2018-Jan-02 01:00N 36°13' E 014°05'4 7.4
2018-Jan-02 00:30N 36°14' E 014°01'4 7.5
2018-Jan-02 00:00N 36°16' E 013°57'4 7.4
2018-Jan-01 23:30N 36°17' E 013°52'4 7.6
2018-Jan-01 23:00N 36°19' E 013°48'4 7.8
2018-Jan-01 22:30N 36°21' E 013°44'4 7.9
2018-Jan-01 22:00N 36°22' E 013°40'  
2017-Dec-27 16:37N 35°57' W 005°15'110.8
2017-Dec-27 16:30N 35°57' W 005°17'  

Dump ship's entire track history